El Trompillo Airport

SLET · Santa Cruz, Bolivien

METAR-Geschichte SLET · El Trompillo Airport

Unten siehst du die METARs der letzten paar Tage. Wähle ein Jahr, um ältere METARs ab dem Jahr 2007 zu durchsuchen.

26. Mai 2024

Uhrzeit Code Wetter Temp. Sichtweite Wolkendecke Wind METAR/SPECI
08:00
M
12 °C 10 km+ 2.700 ft 180° 180° 14 - 26 kt METAR SLET 261200Z 18014G26KT 9999 BKN027 BKN070 12/07 Q1024
07:00
M
11 °C 10 km+ 2.700 ft 180° 180° 15 - 27 kt METAR SLET 261100Z 18015G27KT 9999 BKN027 BKN070 11/07 Q1023
06:00
M
11 °C 10 km+ 2.700 ft 180° 180° 14 - 26 kt METAR SLET 261000Z 18014G26KT 9999 BKN027 BKN070 11/09 Q1023

25. Mai 2024

Uhrzeit Code Wetter Temp. Sichtweite Wolkendecke Wind METAR/SPECI
19:00
V
14 °C 10 km+ 7.000 ft 180° 180° 16 kt METAR SLET 252300Z 18016KT 9999 SCT025 BKN070 14/07 Q1021
18:00
V
14 °C 10 km+ 7.000 ft 180° 180° 15 kt METAR SLET 252200Z 18015KT 9999 FEW025 BKN070 14/07 Q1021
17:00
V
15 °C 10 km+ 7.000 ft 170° 170° 17 kt METAR SLET 252100Z 17017KT 9999 FEW027 BKN070 15/07 Q1020
16:00
V
16 °C 10 km+ 7.000 ft 170° 170° 17 kt METAR SLET 252000Z 17017KT 9999 FEW027 BKN070 16/08 Q1020
15:00
V
16 °C 10 km+ 7.000 ft 180° 180° 16 - 28 kt METAR SLET 251900Z 18016G28KT 9999 FEW027 BKN070 16/07 Q1020
14:00
V
16 °C 10 km+ 7.000 ft 170° 170° 15 - 26 kt METAR SLET 251800Z 17015G26KT 9999 FEW027 BKN070 16/07 Q1021
13:00
V
16 °C 10 km+ 7.000 ft 170° 170° 17 - 28 kt METAR SLET 251700Z 17017G28KT 9999 FEW027 BKN070 16/08 Q1023
12:00
V
16 °C 10 km+ 7.000 ft 170° 170° 18 - 28 kt METAR SLET 251600Z 17018G28KT 9999 SCT027 BKN070 16/08 Q1023
11:00
V
16 °C 10 km+ 7.000 ft 180° 180° 19 - 29 kt METAR SLET 251500Z 18019G29KT 9999 SCT027 BKN070 16/08 Q1024
10:00
M
15 °C 10 km+ 2.700 ft 180° 180° 16 - 27 kt METAR SLET 251400Z 18016G27KT 9999 BKN027 BKN070 15/08 Q1025
09:00
M
14 °C 10 km+ 2.700 ft 180° 180° 17 - 29 kt METAR SLET 251300Z 18017G29KT 9999 BKN027 BKN070 14/07 Q1024
07:00
M
14 °C 10 km+ 2.300 ft 180° 180° 15 - 26 kt METAR SLET 251100Z 18015G26KT 9999 BKN023 OVC070 14/08 Q1023
06:00
M
14 °C 10 km+ 2.300 ft 170° 170° 14 - 26 kt METAR SLET 251000Z 17014G26KT 9999 BKN023 OVC070 14/08 Q1023

24. Mai 2024

Uhrzeit Code Wetter Temp. Sichtweite Wolkendecke Wind METAR/SPECI
19:00
V
17 °C 10 km+ 7.000 ft 170° 170° 14 - 24 kt METAR SLET 242300Z 17014G24KT 9999 SCT020 OVC070 17/11 Q1019
18:00
V
17 °C 10 km+ 7.000 ft 170° 170° 14 - 24 kt METAR SLET 242200Z 17014G24KT 9999 SCT023 OVC070 17/11 Q1019
17:00
M
17 °C 10 km+ 2.300 ft 170° 170° 15 - 26 kt METAR SLET 242100Z 17015G26KT 9999 BKN023 OVC070 17/11 Q1019
16:00
M
18 °C 10 km+ 2.500 ft 180° 180° 16 - 27 kt METAR SLET 242000Z 18016G27KT 9999 BKN025 BKN070 18/11 Q1019
15:00
M
18 °C 10 km+ 2.500 ft 180° 180° 16 - 27 kt METAR SLET 241900Z 18016G27KT 9999 BKN025 BKN070 18/11 Q1019
14:00
M
18 °C 10 km+ 2.500 ft 180° 180° 19 - 30 kt METAR SLET 241800Z 18019G30KT 9999 BKN025 BKN070 18/11 Q1020
13:00
M
18 °C 10 km+ 2.500 ft 190° 190° 20 - 30 kt METAR SLET 241700Z 19020G30KT 9999 FEW010 BKN025 BKN070 18/12 Q1021
12:00
M
17 °C 10 km+ 2.500 ft 180° 180° 17 - 28 kt METAR SLET 241600Z 18017G28KT 9999 FEW015 BKN025 BKN070 17/12 Q1022
11:00
M
17 °C 10 km+ 2.500 ft 180° 180° 18 - 29 kt METAR SLET 241500Z 18018G29KT 9999 SCT015 BKN025 OVC070 17/13 Q1022
10:00
M
16 °C 8 km 2.300 ft 180° 180° 16 - 26 kt METAR SLET 241400Z 18016G26KT 8000 ?RA FEW010 BKN023 OVC070 16/13 Q1023
09:00
M
15 °C 5 km 2.000 ft 180° 180° 15 - 26 kt METAR SLET 241300Z 18015G26KT 5000 ?RA FEW010 BKN020 OVC070 15/14 Q1022
08:14
M
15 °C 5 km 2.000 ft 180° 180° 15 - 26 kt METAR SLET 241214Z 18015G26KT 5000 /RA FEW010 BKN020 OVC070 15/14 Q1022
08:00
M
15 °C 8 km 2.000 ft 180° 180° 15 - 26 kt METAR SLET 241200Z 18015G26KT 8000 ?RA FEW010 BKN020 0VC070 15/13 Q1021
07:00
M
16 °C 7 km 1.700 ft 190° 190° 16 - 27 kt METAR SLET 241100Z 19016G27KT 7000 ? RA FEW010 BKN017 0VC070 16/14 Q1021
Eine Änderung melden